createdAt,value
2018-04-12T00:02:13.636Z,13.03
2018-04-12T00:04:40.484Z,11.43
2018-04-12T00:07:07.312Z,11.30
2018-04-12T00:09:35.084Z,11.97
2018-04-12T00:12:01.944Z,13.57
2018-04-12T00:14:29.691Z,14.23
2018-04-12T00:16:56.539Z,11.37
2018-04-12T00:19:24.311Z,12.00
2018-04-12T00:21:52.090Z,16.10
2018-04-12T00:24:18.904Z,12.90
2018-04-12T00:26:45.761Z,13.27
2018-04-12T00:29:12.614Z,12.93
2018-04-12T00:31:39.454Z,12.87
2018-04-12T00:34:06.309Z,11.83
2018-04-12T00:36:33.123Z,12.27
2018-04-12T00:39:01.919Z,12.43
2018-04-12T00:41:28.693Z,11.20
2018-04-12T00:43:55.498Z,11.00
2018-04-12T00:46:22.361Z,12.60
2018-04-12T00:48:49.208Z,11.30
2018-04-12T00:51:16.042Z,12.60
2018-04-12T00:53:48.866Z,12.57
2018-04-12T00:56:15.578Z,12.27
2018-04-12T00:58:42.416Z,13.50
2018-04-12T01:01:09.261Z,10.50
2018-04-12T01:03:37.072Z,11.17
2018-04-12T01:06:04.784Z,11.00
2018-04-12T01:08:32.580Z,12.80
2018-04-12T01:10:59.399Z,12.27
2018-04-12T01:13:26.238Z,11.93
2018-04-12T01:15:53.127Z,11.57
2018-04-12T01:18:19.918Z,11.30
2018-04-12T01:20:46.769Z,13.30
2018-04-12T01:23:13.625Z,11.50
2018-04-12T01:25:40.446Z,13.47
2018-04-12T01:28:07.316Z,9.57
2018-04-12T01:30:34.159Z,11.10
2018-04-12T01:33:06.976Z,9.30
2018-04-12T01:35:33.660Z,9.77
2018-04-12T01:38:00.530Z,11.63
2018-04-12T01:40:27.374Z,13.00
2018-04-12T01:42:54.216Z,11.73
2018-04-12T01:45:21.048Z,11.37
2018-04-12T01:47:47.895Z,10.40
2018-04-12T01:50:14.751Z,11.63
2018-04-12T01:52:41.588Z,11.77
2018-04-12T01:55:08.428Z,11.43
2018-04-12T01:57:35.284Z,10.90
2018-04-12T02:00:02.120Z,12.07
2018-04-12T02:02:28.950Z,10.90
2018-04-12T02:04:55.841Z,10.47
2018-04-12T02:07:22.644Z,11.37
2018-04-12T02:09:49.480Z,11.30
2018-04-12T02:12:16.347Z,10.13
2018-04-12T02:14:43.160Z,10.60
2018-04-12T02:17:10.015Z,10.63
2018-04-12T02:19:36.875Z,11.40
2018-04-12T02:22:03.697Z,12.07
2018-04-12T02:24:30.558Z,12.80
2018-04-12T02:26:57.393Z,12.07
2018-04-12T02:29:24.224Z,12.07
2018-04-12T02:31:51.094Z,11.23
2018-04-12T02:34:17.921Z,10.70
2018-04-12T02:36:44.797Z,11.53
2018-04-12T02:39:11.613Z,10.57
2018-04-12T02:41:38.445Z,9.77
2018-04-12T02:44:05.320Z,11.93
2018-04-12T02:46:33.060Z,11.50
2018-04-12T02:48:59.901Z,10.57
2018-04-12T02:51:26.777Z,11.67
2018-04-12T02:53:54.509Z,12.43
2018-04-12T02:56:21.358Z,11.97
2018-04-12T02:58:48.212Z,11.83
2018-04-12T03:01:15.042Z,11.30
2018-04-12T03:03:41.882Z,9.87
2018-04-12T03:06:08.772Z,10.40
2018-04-12T03:08:35.599Z,12.07
2018-04-12T03:11:03.366Z,12.17
2018-04-12T03:13:30.190Z,10.97
2018-04-12T03:15:57.960Z,11.87
2018-04-12T03:18:24.812Z,12.50
2018-04-12T03:20:51.646Z,12.27
2018-04-12T03:23:18.476Z,11.70
2018-04-12T03:25:45.344Z,11.50
2018-04-12T03:28:12.173Z,12.73
2018-04-12T03:30:39.029Z,12.50
2018-04-12T03:33:06.778Z,12.57
2018-04-12T03:35:34.540Z,10.57
2018-04-12T03:38:01.426Z,12.43
2018-04-12T03:40:28.238Z,11.60
2018-04-12T03:42:55.070Z,13.73
2018-04-12T03:45:21.942Z,13.53
2018-04-12T03:47:48.766Z,13.53
2018-04-12T03:50:15.616Z,12.00
2018-04-12T03:52:43.403Z,12.00
2018-04-12T03:55:10.216Z,11.63
2018-04-12T03:57:37.065Z,11.13
2018-04-12T04:00:03.924Z,12.60
2018-04-12T04:02:30.774Z,12.53
2018-04-12T04:04:57.588Z,11.20
2018-04-12T04:07:24.502Z,10.90
2018-04-12T04:09:51.300Z,12.87
2018-04-12T04:12:21.502Z,12.83
2018-04-12T04:15:09.057Z,12.43
2018-04-12T04:17:41.616Z,12.43
2018-04-12T04:20:14.400Z,11.67
2018-04-12T04:22:41.154Z,13.77
2018-04-12T04:25:08.898Z,13.27
2018-04-12T04:27:35.774Z,12.13
2018-04-12T04:30:02.581Z,13.07
2018-04-12T04:32:29.446Z,12.80
2018-04-12T04:34:56.313Z,12.50
2018-04-12T04:37:23.133Z,12.73
2018-04-12T04:39:49.980Z,12.23
2018-04-12T04:42:16.823Z,11.70
2018-04-12T04:44:43.651Z,12.57
2018-04-12T04:47:10.517Z,13.43
2018-04-12T04:49:37.342Z,13.43
2018-04-12T04:52:04.204Z,12.63
2018-04-12T04:54:31.039Z,14.03
2018-04-12T04:57:00.707Z,12.37
2018-04-12T04:59:27.511Z,14.07
2018-04-12T05:01:54.350Z,12.27
2018-04-12T05:04:22.824Z,15.83
2018-04-12T05:06:50.570Z,13.30
2018-04-12T05:09:17.329Z,14.37
2018-04-12T05:11:44.157Z,13.43
2018-04-12T05:14:11.057Z,14.10
2018-04-12T05:16:37.852Z,16.43
2018-04-12T05:19:04.689Z,13.30
2018-04-12T05:21:31.569Z,15.03
2018-04-12T05:23:58.380Z,15.17
2018-04-12T05:26:25.433Z,13.17
2018-04-12T05:28:54.239Z,17.33
2018-04-12T05:31:24.433Z,15.83
2018-04-12T05:33:51.277Z,14.80
2018-04-12T05:36:18.136Z,14.00
2018-04-12T05:38:44.968Z,13.37
2018-04-12T05:41:11.813Z,16.30
2018-04-12T05:43:38.682Z,19.27
2018-04-12T05:46:05.500Z,15.27
2018-04-12T05:48:32.357Z,22.50
2018-04-12T05:51:01.034Z,12.37
2018-04-12T05:53:27.891Z,16.97
2018-04-12T05:55:54.729Z,18.07
2018-04-12T05:58:21.567Z,21.57
2018-04-12T06:00:49.327Z,16.87
2018-04-12T06:03:16.175Z,17.13
2018-04-12T06:05:43.021Z,16.67
2018-04-12T06:08:09.863Z,18.00
2018-04-12T06:10:36.721Z,17.60
2018-04-12T06:13:03.566Z,17.00
2018-04-12T06:15:31.332Z,18.23
2018-04-12T06:17:59.110Z,16.43
2018-04-12T06:20:25.961Z,16.17
2018-04-12T06:22:52.766Z,17.87
2018-04-12T06:25:19.633Z,17.07
2018-04-12T06:27:46.454Z,21.27
2018-04-12T06:30:13.299Z,16.10
2018-04-12T06:32:40.175Z,15.53
2018-04-12T06:35:07.013Z,15.90
2018-04-12T06:37:33.836Z,16.83
2018-04-12T06:40:00.717Z,16.77
2018-04-12T06:42:27.520Z,16.23
2018-04-12T06:44:54.358Z,14.83
2018-04-12T06:47:21.228Z,15.53
2018-04-12T06:49:48.049Z,15.47
2018-04-12T06:52:15.823Z,15.27
2018-04-12T06:54:42.673Z,16.40
2018-04-12T06:57:09.497Z,15.40
2018-04-12T06:59:36.380Z,14.47
2018-04-12T07:02:03.189Z,14.63
2018-04-12T07:04:30.073Z,15.47
2018-04-12T07:06:56.880Z,15.73
2018-04-12T07:09:23.724Z,16.73
2018-04-12T07:11:50.602Z,16.73
2018-04-12T07:14:17.415Z,15.67
2018-04-12T07:16:44.245Z,16.13
2018-04-12T07:19:11.163Z,21.73
2018-04-12T07:21:37.948Z,14.80
2018-04-12T07:24:07.865Z,15.60
2018-04-12T07:26:34.714Z,13.67
2018-04-12T07:29:01.533Z,15.47
2018-04-12T07:31:28.390Z,13.63
2018-04-12T07:33:55.286Z,15.53
2018-04-12T07:36:22.074Z,14.60
2018-04-12T07:38:49.863Z,18.70
2018-04-12T07:41:17.599Z,12.77
2018-04-12T07:43:44.453Z,14.77
2018-04-12T07:46:11.304Z,13.67
2018-04-12T07:48:38.129Z,12.97
2018-04-12T07:51:04.970Z,15.60
2018-04-12T07:53:31.841Z,12.57
2018-04-12T07:55:58.665Z,17.40
2018-04-12T07:58:25.500Z,13.47
2018-04-12T08:00:52.373Z,14.30
2018-04-12T08:03:19.207Z,14.03
2018-04-12T08:05:46.027Z,15.23
2018-04-12T08:08:12.893Z,13.30
2018-04-12T08:10:39.543Z,14.37
2018-04-12T08:13:06.306Z,14.07
2018-04-12T08:15:33.121Z,15.57
2018-04-12T08:17:59.949Z,15.27
2018-04-12T08:20:26.810Z,15.90
2018-04-12T08:22:53.676Z,13.57
2018-04-12T08:25:20.472Z,17.43
2018-04-12T08:27:47.361Z,12.27
2018-04-12T08:30:14.194Z,13.30
2018-04-12T08:32:41.009Z,15.20
2018-04-12T08:35:07.866Z,15.17
2018-04-12T08:37:34.732Z,15.07
2018-04-12T08:40:01.554Z,14.77
2018-04-12T08:42:29.318Z,16.13
2018-04-12T08:44:56.180Z,14.77
2018-04-12T08:47:23.001Z,15.60
2018-04-12T08:49:49.844Z,13.20
2018-04-12T08:52:16.721Z,13.13
2018-04-12T08:54:43.531Z,16.00
2018-04-12T08:57:10.385Z,14.77
2018-04-12T08:59:37.229Z,14.47
2018-04-12T09:02:04.067Z,13.70
2018-04-12T09:04:30.988Z,13.47
2018-04-12T09:06:57.756Z,13.60
2018-04-12T09:09:24.598Z,14.43
2018-04-12T09:11:51.761Z,14.20
2018-04-12T09:14:18.600Z,16.67
2018-04-12T09:16:45.484Z,14.23
2018-04-12T09:19:12.285Z,13.67
2018-04-12T09:21:39.116Z,13.33
2018-04-12T09:24:05.995Z,13.83
2018-04-12T09:26:32.817Z,13.77
2018-04-12T09:28:59.664Z,13.30
2018-04-12T09:31:26.508Z,15.33
2018-04-12T09:33:53.337Z,15.30
2018-04-12T09:36:20.187Z,15.43
2018-04-12T09:38:47.053Z,14.93
2018-04-12T09:41:13.900Z,15.83
2018-04-12T09:43:40.721Z,15.17
2018-04-12T09:46:07.617Z,13.70
2018-04-12T09:48:34.431Z,13.33
2018-04-12T09:51:02.185Z,15.83
2018-04-12T09:53:29.033Z,13.47
2018-04-12T09:55:55.884Z,15.30
2018-04-12T09:58:22.709Z,13.13
2018-04-12T10:00:55.263Z,13.67
2018-04-12T10:03:21.957Z,15.73
2018-04-12T10:05:54.391Z,15.97
2018-04-12T10:08:27.761Z,13.80
2018-04-12T10:10:54.434Z,15.33
2018-04-12T10:13:21.286Z,16.00
2018-04-12T10:15:48.110Z,15.07
2018-04-12T10:18:14.961Z,14.17
2018-04-12T10:20:42.753Z,13.30
2018-04-12T10:23:11.407Z,14.90
2018-04-12T10:25:38.299Z,15.37
2018-04-12T10:28:05.115Z,14.73
2018-04-12T10:30:31.937Z,15.20
2018-04-12T10:32:58.803Z,17.53
2018-04-12T10:35:25.659Z,15.13
2018-04-12T10:37:52.520Z,18.20
2018-04-12T10:40:21.174Z,13.97
2018-04-12T10:42:48.010Z,16.70
2018-04-12T10:45:14.887Z,15.73
2018-04-12T10:47:41.697Z,16.07
2018-04-12T10:50:08.539Z,18.03
2018-04-12T10:52:36.321Z,14.30
2018-04-12T10:55:03.152Z,15.57
2018-04-12T10:57:30.021Z,14.50
2018-04-12T10:59:57.789Z,16.73
2018-04-12T11:02:25.517Z,16.40
2018-04-12T11:04:53.312Z,17.37
2018-04-12T11:07:20.142Z,19.07
2018-04-12T11:09:47.012Z,17.40
2018-04-12T11:12:13.860Z,17.83
2018-04-12T11:14:40.665Z,16.87
2018-04-12T11:17:07.523Z,15.67
2018-04-12T11:19:34.349Z,15.13
2018-04-12T11:22:01.192Z,15.17
2018-04-12T11:24:28.070Z,15.83
2018-04-12T11:26:54.893Z,16.50
2018-04-12T11:29:21.748Z,17.00
2018-04-12T11:31:48.576Z,17.37
2018-04-12T11:34:15.494Z,16.17
2018-04-12T11:36:42.291Z,17.93
2018-04-12T11:39:09.132Z,15.97
2018-04-12T11:41:35.947Z,15.40
2018-04-12T11:44:02.812Z,16.03
2018-04-12T11:46:29.634Z,18.53
2018-04-12T11:48:56.474Z,18.63
2018-04-12T11:51:23.349Z,19.57
2018-04-12T11:53:50.167Z,17.43
2018-04-12T11:56:17.008Z,15.80
2018-04-12T11:58:43.877Z,16.80
2018-04-12T12:01:10.710Z,15.30
2018-04-12T12:03:37.539Z,15.77
2018-04-12T12:06:04.409Z,17.37
2018-04-12T12:08:31.232Z,18.27
2018-04-12T12:10:58.065Z,14.57
2018-04-12T12:13:24.935Z,17.67
2018-04-12T12:15:52.677Z,16.10
2018-04-12T12:18:20.445Z,16.67
2018-04-12T12:20:47.305Z,17.10
2018-04-12T12:23:14.446Z,14.73
2018-04-12T12:25:41.299Z,16.03
2018-04-12T12:28:08.147Z,15.23
2018-04-12T12:30:34.986Z,17.53
2018-04-12T12:33:01.830Z,17.13
2018-04-12T12:35:29.610Z,14.70
2018-04-12T12:37:56.437Z,14.53
2018-04-12T12:40:23.303Z,17.67
2018-04-12T12:42:50.142Z,14.60
2018-04-12T12:45:16.962Z,16.10
2018-04-12T12:47:43.802Z,16.40
2018-04-12T12:50:11.652Z,16.27
2018-04-12T12:52:38.412Z,15.87
2018-04-12T12:55:05.251Z,14.50
2018-04-12T12:57:35.504Z,16.73
2018-04-12T13:00:02.317Z,14.57
2018-04-12T13:02:30.110Z,16.87
2018-04-12T13:04:56.949Z,15.63
2018-04-12T13:07:23.787Z,16.13
2018-04-12T13:09:50.642Z,16.07
2018-04-12T13:12:17.473Z,16.00
2018-04-12T13:14:44.310Z,16.47
2018-04-12T13:17:11.680Z,16.83
2018-04-12T13:19:38.333Z,15.37
2018-04-12T13:22:05.160Z,16.80
2018-04-12T13:24:32.019Z,15.57
2018-04-12T13:26:58.847Z,17.90
2018-04-12T13:29:25.677Z,19.57
2018-04-12T13:31:52.541Z,16.03
2018-04-12T13:34:19.374Z,16.63
2018-04-12T13:36:46.264Z,17.57
2018-04-12T13:39:13.074Z,16.20
2018-04-12T13:41:39.928Z,16.70
2018-04-12T13:44:07.682Z,15.90
2018-04-12T13:46:34.508Z,16.63
2018-04-12T13:49:01.354Z,18.17
2018-04-12T13:51:30.090Z,16.17
2018-04-12T13:53:57.815Z,16.90
2018-04-12T13:56:24.643Z,18.07
2018-04-12T13:58:51.523Z,16.57
2018-04-12T14:01:18.354Z,16.53
2018-04-12T14:03:45.178Z,16.93
2018-04-12T14:06:12.036Z,17.20
2018-04-12T14:08:38.874Z,17.50
2018-04-12T14:11:05.721Z,17.33
2018-04-12T14:13:32.573Z,16.23
2018-04-12T14:15:59.392Z,17.23
2018-04-12T14:18:26.265Z,15.87
2018-04-12T14:20:53.089Z,16.60
2018-04-12T14:23:19.930Z,18.87
2018-04-12T14:25:46.796Z,17.70
2018-04-12T14:28:13.624Z,16.13
2018-04-12T14:30:40.470Z,16.90
2018-04-12T14:33:07.313Z,17.40
2018-04-12T14:35:34.168Z,19.07
2018-04-12T14:38:01.016Z,15.73
2018-04-12T14:40:27.885Z,16.33
2018-04-12T14:42:54.702Z,17.10
2018-04-12T14:45:21.567Z,17.03
2018-04-12T14:47:48.370Z,18.30
2018-04-12T14:50:15.227Z,18.23
2018-04-12T14:52:42.072Z,16.50
2018-04-12T14:55:08.886Z,16.50
2018-04-12T14:57:35.789Z,15.97
2018-04-12T15:00:02.590Z,17.80
2018-04-12T15:02:29.424Z,15.33
2018-04-12T15:04:56.310Z,14.23
2018-04-12T15:07:23.104Z,17.33
2018-04-12T15:09:49.962Z,13.97
2018-04-12T15:12:17.769Z,15.83
2018-04-12T15:14:44.560Z,15.03
2018-04-12T15:17:11.453Z,14.23
2018-04-12T15:19:38.282Z,16.87
2018-04-12T15:22:05.096Z,14.33
2018-04-12T15:24:31.964Z,15.87
2018-04-12T19:59:46.387Z,16.23
2018-04-12T20:02:14.139Z,15.17
2018-04-12T20:04:40.958Z,15.53
2018-04-12T20:07:07.854Z,13.73
2018-04-12T20:09:34.658Z,14.97
2018-04-12T20:12:01.491Z,12.77
2018-04-12T20:14:28.368Z,14.27
2018-04-12T20:16:55.185Z,12.60
2018-04-12T20:19:22.035Z,15.97
2018-04-12T20:21:48.897Z,11.83
2018-04-12T20:24:15.713Z,11.03
2018-04-12T20:26:42.653Z,13.93
2018-04-12T20:29:09.486Z,11.67
2018-04-12T20:31:36.267Z,13.17
2018-04-12T20:34:03.143Z,11.40
2018-04-12T20:36:29.954Z,12.70
2018-04-12T20:38:56.832Z,10.87
2018-04-12T20:41:23.645Z,12.70
2018-04-12T20:43:50.472Z,13.13
2018-04-12T20:46:17.347Z,12.07
2018-04-12T20:48:44.156Z,12.77
2018-04-12T20:51:11.936Z,12.63
2018-04-12T20:53:38.776Z,13.63
2018-04-12T20:56:05.695Z,11.27
2018-04-12T20:58:36.465Z,13.40
2018-04-12T21:01:03.359Z,13.57
2018-04-12T21:03:30.179Z,12.50
2018-04-12T21:06:00.421Z,13.53
2018-04-12T21:08:27.218Z,13.30
2018-04-12T21:10:54.163Z,12.47
2018-04-12T21:13:20.951Z,13.10
2018-04-12T21:15:47.739Z,11.13
2018-04-12T21:18:14.588Z,11.70
2018-04-12T21:20:41.797Z,12.57
2018-04-12T21:23:08.597Z,10.83
2018-04-12T21:25:35.409Z,10.83
2018-04-12T21:28:03.188Z,15.33
2018-04-12T21:30:33.748Z,14.83
2018-04-12T21:33:03.622Z,11.00
2018-04-12T21:35:30.457Z,13.27
2018-04-12T21:37:59.177Z,11.70
2018-04-12T21:40:26.930Z,12.27
2018-04-12T21:42:55.627Z,11.30
2018-04-12T21:45:22.522Z,12.40
2018-04-12T21:47:54.823Z,12.53
2018-04-12T21:50:22.605Z,14.73
2018-04-12T21:52:50.451Z,13.00
2018-04-12T21:55:17.215Z,13.00
2018-04-12T21:57:44.047Z,12.00
2018-04-12T22:00:14.013Z,12.93
2018-04-12T22:02:40.824Z,11.63
2018-04-12T22:05:08.590Z,10.77
2018-04-12T22:07:35.421Z,12.87
2018-04-12T22:10:04.137Z,12.90
2018-04-12T22:12:32.811Z,11.90
2018-04-12T22:15:00.561Z,13.57
2018-04-12T22:17:27.414Z,14.63
2018-04-12T22:19:55.188Z,13.03
2018-04-12T22:22:22.002Z,12.93
2018-04-12T22:24:49.787Z,13.27
2018-04-12T22:27:16.617Z,11.47
2018-04-12T22:29:43.486Z,13.07
2018-04-12T22:32:11.234Z,12.93
2018-04-12T22:34:38.992Z,13.33
2018-04-12T22:37:05.904Z,11.97
2018-04-12T22:39:32.673Z,13.70
2018-04-12T22:42:00.503Z,14.17
2018-04-12T22:44:27.285Z,12.67
2018-04-12T22:46:54.143Z,11.67
2018-04-12T22:49:24.066Z,13.77
2018-04-12T22:51:50.914Z,14.70
2018-04-12T22:54:18.686Z,15.23
2018-04-12T22:56:45.500Z,13.17
2018-04-12T22:59:14.208Z,13.40
2018-04-12T23:01:41.978Z,13.43
2018-04-12T23:04:08.811Z,13.40
2018-04-12T23:06:35.653Z,13.27
2018-04-12T23:09:02.534Z,13.33
2018-04-12T23:11:29.362Z,13.87
2018-04-12T23:13:57.106Z,13.20
2018-04-12T23:16:23.961Z,11.17
2018-04-12T23:18:50.794Z,13.57
2018-04-12T23:21:17.656Z,14.50
2018-04-12T23:23:45.403Z,15.73
2018-04-12T23:26:12.245Z,14.17
2018-04-12T23:28:39.102Z,12.90
2018-04-12T23:31:05.970Z,14.87
2018-04-12T23:33:32.778Z,13.17
2018-04-12T23:35:59.621Z,14.23
2018-04-12T23:38:26.508Z,13.30
2018-04-12T23:40:53.297Z,12.87
2018-04-12T23:43:20.150Z,12.90
2018-04-12T23:45:47.916Z,14.27
2018-04-12T23:48:14.760Z,13.40
2018-04-12T23:50:42.538Z,12.20
2018-04-12T23:53:10.320Z,13.23
2018-04-12T23:55:38.064Z,13.17
2018-04-12T23:58:04.903Z,13.47
